Latest Coastal Weather Observations for Dennes Point

IDT60701

Issued at 12:12 am EDT Tuesday 21 November 2017 (issued every 10 minutes, with the page automatically refreshed every 10 minutes)

About coastal observations | Map of coastal stations | Coastal observations for TAS | Marine services | Other Formats
Station Details ID: 094255 Name: DENNES POINT Lat: -43.06 Lon: 147.36 Height: 5.67 m
Data from the previous 72 hours. | See also: Recent months at Dennes Point
Date/Time
EDT
Temp
°C
Wind Pressure Rain since
9am
mm
Weather Cloud Vis
km
Sea
Height
m
Swell
Dir  Spd
kts
Gust
kts
hPa Trend Height
m
Period
s
Dir
21/12:00am 16.8 CALM 0 0 1022.7 - 0.0 - - - - - - -
 
Date/Time
EDT
Temp
°C
Wind Pressure Rain since
9am
mm
Weather Cloud Vis
km
Sea
Height
m
Swell
Dir  Spd
kts
Gust
kts
hPa Trend Height
m
Period
s
Dir
20/11:30pm 16.2 N 2 3 1022.9 - 0.0 - - - - - - -
20/11:00pm 17.1 NE 2 3 1023.1 - 0.0 - - - - - - -
20/10:30pm 17.6 ENE 4 4 1023.2 - 0.0 - - - - - - -
20/10:00pm 17.7 E 3 4 1023.4 - 0.0 - - - - - - -
20/09:30pm 17.6 ESE 5 7 1023.3 - 0.0 - - - - - - -
20/09:00pm 18.5 E 8 9 1023.1 - 0.0 - - - - - - -
20/08:30pm 18.9 E 5 7 1023.1 - 0.0 - - - - - - -
20/08:00pm 19.2 ESE 6 8 1023.0 - 0.0 - - - - - - -
20/07:30pm 19.9 E 5 7 1022.8 - 0.0 - - - - - - -
20/07:00pm 20.6 NE 5 5 1022.7 - 0.0 - - - - - - -
20/06:30pm 21.8 ENE 3 5 1022.6 - 0.0 - - - - - - -
20/06:00pm 22.4 E 5 6 1022.5 - 0.0 - - - - - - -
20/05:30pm 23.0 E 4 6 1022.6 - 0.0 - - - - - - -
20/05:00pm 21.8 ESE 5 6 1022.5 - 0.0 - - - - - - -
20/04:30pm 23.1 SE 5 7 1022.8 - 0.0 - - - - - - -
20/04:00pm 23.5 E 4 6 1023.0 - 0.0 - - - - - - -
20/03:30pm 23.7 SE 6 9 1023.2 - 0.0 - - - - - - -
20/03:00pm 23.4 ESE 7 9 1023.4 - 0.0 - - - - - - -
20/02:30pm 23.0 SSE 5 7 1023.7 - 0.0 - - - - - - -
20/02:00pm 20.6 SE 7 10 1023.7 - 0.0 - - - - - - -
20/01:30pm 22.6 ESE 9 11 1023.8 - 0.0 - - - - - - -
20/01:00pm 23.2 ESE 9 12 1024.0 - 0.0 - - - - - - -
20/12:30pm 22.7 E 10 12 1024.1 - 0.0 - - - - - - -
20/12:00pm 23.8 ESE 7 9 1024.3 - 0.0 - - - - - - -
20/11:30am 23.6 ESE 8 9 1024.5 - 0.0 - - - - - - -
20/11:00am 21.9 ESE 7 8 1024.7 - 0.0 - - - - - - -
20/10:30am 21.3 E 3 4 1024.9 - 0.0 - - - - - - -
20/10:00am 20.6 E 4 6 1024.8 - 0.0 - - - - - - -
20/09:30am 19.9 E 4 5 1025.1 - 0.0 - - - - - - -
20/09:00am 18.8 ENE 2 2 1025.2 - 0.0 - - - - - - -
20/08:30am 18.2 W 2 3 1025.2 - 0.0 - - - - - - -
20/08:00am 17.5 WSW 1 2 1025.2 - 0.0 - - - - - - -
20/07:30am 16.3 WSW 3 4 1025.0 - 0.0 - - - - - - -
20/07:00am 15.9 WSW 1 3 1024.8 - 0.0 - - - - - - -
20/06:30am 15.1 CALM 0 0 1024.6 - 0.0 - - - - - - -
20/06:00am 13.9 SSW 3 4 1024.3 - 0.0 - - - - - - -
20/05:30am 14.0 SSW 4 5 1024.1 - 0.0 - - - - - - -
20/05:00am 14.0 SSW 4 5 1024.0 - 0.0 - - - - - - -
20/04:30am 14.1 E 1 4 1023.7 - 0.0 - - - - - - -
20/04:00am 15.6 CALM 0 0 1023.7 - 0.0 - - - - - - -
20/03:30am 14.6 E 4 4 1023.7 - 0.0 - - - - - - -
20/03:00am 15.4 CALM 0 0 1023.7 - 0.0 - - - - - - -
20/02:30am 16.0 CALM 0 0 1023.5 - 0.0 - - - - - - -
20/02:00am 16.1 CALM 0 0 1023.6 - 0.0 - - - - - - -
20/01:30am 15.7 CALM 0 0 1023.5 - 0.0 - - - - - - -
20/01:00am 16.4 S 1 2 1023.7 - 0.0 - - - - - - -
20/12:30am 15.8 S 4 5 1023.9 - 0.0 - - - - - - -
20/12:00am 16.5 CALM 0 2 1024.0 - 0.0 - - - - - - -
 
Date/Time
EDT
Temp
°C
Wind Pressure Rain since
9am
mm
Weather Cloud Vis
km
Sea
Height
m
Swell
Dir  Spd
kts
Gust
kts
hPa Trend Height
m
Period
s
Dir
19/11:30pm 17.1 SE 2 2 1024.0 - 0.0 - - - - - - -
19/11:00pm 17.1 SSE 2 3 1024.1 - 0.0 - - - - - - -
19/10:30pm 17.5 CALM 0 0 1024.1 - 0.0 - - - - - - -
19/10:00pm 17.3 ESE 2 3 1024.2 - 0.0 - - - - - - -
19/09:30pm 17.6 SW 2 3 1024.0 - 0.0 - - - - - - -
19/09:00pm 18.4 SSW 2 3 1023.6 - 0.0 - - - - - - -
19/08:30pm 18.7 NE 1 2 1023.4 - 0.0 - - - - - - -
19/08:00pm 19.2 SW 1 2 1023.0 - 0.0 - - - - - - -
19/07:30pm 20.0 CALM 0 2 1022.8 - 0.0 - - - - - - -
19/07:00pm 20.6 E 1 3 1022.7 - 0.0 - - - - - - -
19/06:30pm 21.4 S 3 5 1022.5 - 0.0 - - - - - - -
19/06:00pm 21.9 SW 7 11 1022.4 - 0.0 - - - - - - -
19/05:30pm 21.9 SW 7 8 1022.4 - 0.0 - - - - - - -
19/05:00pm 21.8 SW 7 11 1022.5 - 0.0 - - - - - - -
19/04:30pm 22.6 SE 5 8 1022.5 - 0.0 - - - - - - -
19/04:00pm 22.6 ESE 9 14 1022.4 - 0.0 - - - - - - -
19/03:30pm 21.9 ESE 12 17 1022.4 - 0.0 - - - - - - -
19/03:00pm 22.4 SE 11 14 1022.5 - 0.0 - - - - - - -
19/02:30pm 22.4 ESE 12 16 1022.8 - 0.0 - - - - - - -
19/02:00pm 23.9 ESE 9 12 1022.8 - 0.0 - - - - - - -
19/01:30pm 24.8 ESE 9 12 1022.9 - 0.0 - - - - - - -
19/01:00pm 23.9 ESE 9 11 1023.1 - 0.0 - - - - - - -
19/12:30pm 23.6 ESE 8 10 1023.3 - 0.0 - - - - - - -
19/12:00pm 23.7 ENE 3 3 1023.4 - 0.0 - - - - - - -
19/11:30am 22.4 NNE 2 3 1023.4 - 0.0 - - - - - - -
19/11:00am 21.6 NE 3 5 1023.4 - 0.0 - - - - - - -
19/10:30am 21.6 NE 3 4 1023.5 - 0.0 - - - - - - -
19/10:00am 20.8 NNE 2 3 1023.2 - 0.0 - - - - - - -
19/09:30am 20.1 NE 3 4 1023.4 - 0.0 - - - - - - -
19/09:00am 20.3 ENE 2 3 1023.3 - 0.0 - - - - - - -
19/08:30am 19.3 CALM 0 2 1023.3 - 0.0 - - - - - - -
19/08:00am 18.5 N 5 7 1023.0 - 0.0 - - - - - - -
19/07:30am 18.2 NE 3 4 1022.8 - 0.0 - - - - - - -
19/07:00am 17.4 E 2 4 1022.7 - 0.0 - - - - - - -
19/06:30am 15.1 CALM 0 0 1022.4 - 0.0 - - - - - - -
19/06:00am 14.1 SW 2 4 1022.0 - 0.0 - - - - - - -
19/05:30am 14.2 SW 3 6 1021.6 - 0.0 - - - - - - -
19/05:00am 16.1 N 3 4 1021.3 - 0.0 - - - - - - -
19/04:30am 16.0 NNE 1 4 1021.3 - 0.0 - - - - - - -
19/04:00am 16.1 N 2 4 1021.3 - 0.0 - - - - - - -
19/03:30am 16.6 N 2 3 1021.2 - 0.0 - - - - - - -
19/03:00am 17.3 NNE 6 8 1021.2 - 0.0 - - - - - - -
19/02:30am 17.2 N 1 5 1021.1 - 0.0 - - - - - - -
19/02:00am 17.2 NNE 4 5 1021.0 - 0.0 - - - - - - -
19/01:30am 16.9 SW 2 7 1021.2 - 0.0 - - - - - - -
19/01:00am 17.0 ENE 2 5 1021.4 - 0.0 - - - - - - -
19/12:30am 17.4 NE 2 4 1021.4 - 0.0 - - - - - - -
19/12:00am 17.1 NE 4 5 1021.4 - 0.0 - - - - - - -
 
Date/Time
EDT
Temp
°C
Wind Pressure Rain since
9am
mm
Weather Cloud Vis
km
Sea
Height
m
Swell
Dir  Spd
kts
Gust
kts
hPa Trend Height
m
Period
s
Dir
18/11:30pm 17.4 NE 2 5 1021.3 - 0.0 - - - - - - -
18/11:00pm 17.6 NNE 6 7 1021.4 - 0.0 - - - - - - -
18/10:30pm 18.3 NE 7 10 1021.5 - 0.0 - - - - - - -
18/10:00pm 18.4 NNE 5 7 1021.4 - 0.0 - - - - - - -
18/09:30pm 18.7 E 4 7 1021.2 - 0.0 - - - - - - -
18/09:00pm 19.0 E 7 10 1020.7 - 0.0 - - - - - - -
18/08:30pm 18.9 ESE 5 7 1020.5 - 0.0 - - - - - - -
18/08:00pm 19.0 ESE 7 10 1020.2 - 0.0 - - - - - - -
18/07:30pm 19.7 ESE 1 3 1019.9 - 0.0 - - - - - - -
18/07:00pm 19.1 E 12 16 1019.3 - 0.0 - - - - - - -
18/06:30pm 19.7 E 17 21 1018.8 - 0.0 - - - - - - -
18/06:00pm 20.1 ENE 19 23 1018.7 - 0.0 - - - - - - -
18/05:30pm 20.8 ENE 21 25 1018.6 - 0.0 - - - - - - -
18/05:00pm 21.3 ENE 20 24 1018.6 - 0.0 - - - - - - -
18/04:30pm 21.2 ENE 20 24 1018.8 - 0.0 - - - - - - -
18/04:00pm 21.0 E 20 23 1019.0 - 0.0 - - - - - - -
18/03:30pm 21.0 E 19 22 1019.2 - 0.0 - - - - - - -
18/03:00pm 21.1 E 18 23 1019.4 - 0.0 - - - - - - -
18/02:30pm 22.4 E 13 16 1019.7 - 0.0 - - - - - - -
18/02:00pm 22.8 E 11 16 1019.8 - 0.0 - - - - - - -
18/01:30pm 21.8 E 12 16 1020.0 - 0.0 - - - - - - -
18/01:00pm 21.3 E 14 18 1020.2 - 0.0 - - - - - - -
18/12:30pm 21.3 E 13 15 1020.6 - 0.0 - - - - - - -
18/12:00pm 19.7 E 14 17 1020.8 - 0.0 - - - - - - -
18/11:30am 20.8 E 12 15 1021.1 - 0.0 - - - - - - -
18/11:00am 21.8 ENE 7 9 1021.3 - 0.0 - - - - - - -
18/10:30am 21.0 ENE 6 8 1021.5 - 0.0 - - - - - - -
18/10:00am 20.4 NE 10 11 1021.7 - 0.0 - - - - - - -
18/09:30am 19.3 NE 12 14 1022.0 - 0.0 - - - - - - -
18/09:00am 18.5 NE 12 14 1022.0 - 0.0 - - - - - - -
18/08:30am 18.2 NE 10 12 1022.2 - 0.0 - - - - - - -
18/08:00am 17.8 NE 9 11 1022.1 - 0.0 - - - - - - -
18/07:30am 17.2 NE 9 12 1022.0 - 0.0 - - - - - - -
18/07:00am 16.8 NNE 10 11 1021.9 - 0.0 - - - - - - -
18/06:30am 16.4 ENE 9 10 1021.7 - 0.0 - - - - - - -
18/06:00am 16.2 NE 10 13 1021.4 - 0.0 - - - - - - -
18/05:30am 16.1 E 7 9 1021.3 - 0.0 - - - - - - -
18/05:00am 16.0 E 5 7 1021.0 - 0.0 - - - - - - -
18/04:30am 15.8 E 7 8 1021.1 - 0.0 - - - - - - -
18/04:00am 15.8 ENE 7 8 1021.2 - 0.0 - - - - - - -
18/03:30am 15.9 ENE 8 9 1021.2 - 0.0 - - - - - - -
18/03:00am 16.0 ENE 7 8 1021.4 - 0.0 - - - - - - -
18/02:30am 16.2 ENE 10 12 1021.3 - 0.0 - - - - - - -
18/02:00am 16.3 ENE 13 15 1021.3 - 0.0 - - - - - - -
18/01:30am 16.6 NE 13 15 1021.3 - 0.0 - - - - - - -
18/01:00am 16.4 ENE 14 16 1021.0 - 0.0 - - - - - - -
18/12:30am 16.1 ENE 12 13 1021.2 - 0.0 - - - - - - -

Other Formats:

Comma delimited format used in spreadsheet applications
http://www.bom.gov.au/fwo/IDT60701/IDT60701.94988.axf

JavaScript Object Notation format (JSON) in row-major order
http://www.bom.gov.au/fwo/IDT60701/IDT60701.94988.json